Time;durP1;ratioP1;P1;durP2;ratioP2;P2;SDS_P1;SDS_P2;PMS_P1;PMS_P2;Temp;Humidity;BMP_temperature;BMP_pressure;BME280_temperature;BME280_humidity;BME280_pressure;Samples;Min_cycle;Max_cycle;Signal;HPM_P1;HPM_P2
2023/06/13 00:00:05;;;;;;;4.47;2.72;;;20.50;99.50;;;;;;5030683;28;20029;-44
2023/06/13 00:02:31;;;;;;;3.55;2.92;;;20.40;99.50;;;;;;5030879;28;20030;-46
2023/06/13 00:04:57;;;;;;;5.18;3.03;;;20.50;99.60;;;;;;5032036;28;20550;-45
2023/06/13 00:07:23;;;;;;;3.10;2.72;;;20.40;99.50;;;;;;5036197;28;20051;-46
2023/06/13 00:09:49;;;;;;;3.60;3.00;;;20.50;99.60;;;;;;5034581;28;20014;-44
2023/06/13 00:12:20;;;;;;;3.53;2.85;;;20.40;99.50;;;;;;5035170;28;20396;-43
2023/06/13 00:14:50;;;;;;;3.55;3.10;;;20.40;99.50;;;;;;5035322;28;20034;-44
2023/06/13 00:17:17;;;;;;;4.00;2.80;;;20.40;99.50;;;;;;5035115;28;20477;-46
2023/06/13 00:19:43;;;;;;;4.00;2.88;;;20.40;99.50;;;;;;5034479;28;20108;-47
2023/06/13 00:22:13;;;;;;;3.30;2.83;;;20.40;99.50;;;;;;5035424;28;20075;-46
2023/06/13 00:24:41;;;;;;;2.95;2.53;;;20.40;99.50;;;;;;5034355;28;20029;-48
2023/06/13 00:27:07;;;;;;;3.40;2.95;;;20.40;99.50;;;;;;5034117;28;20029;-44
2023/06/13 00:29:33;;;;;;;3.85;3.10;;;20.40;99.50;;;;;;5034648;28;20475;-46
2023/06/13 00:31:58;;;;;;;3.53;2.92;;;20.40;99.50;;;;;;5034283;28;20040;-48
2023/06/13 00:34:24;;;;;;;3.15;2.75;;;20.40;99.50;;;;;;5034181;28;20112;-46
2023/06/13 00:36:50;;;;;;;3.10;2.80;;;20.40;99.50;;;;;;5034281;28;20106;-46
2023/06/13 00:39:16;;;;;;;3.45;2.90;;;20.40;99.50;;;;;;5034428;28;20021;-44
2023/06/13 00:41:42;;;;;;;3.75;3.20;;;20.40;99.50;;;;;;5034362;28;20041;-45
2023/06/13 00:44:07;;;;;;;3.33;2.60;;;20.40;99.50;;;;;;5034873;28;20017;-46
2023/06/13 00:46:35;;;;;;;4.28;3.33;;;20.30;99.50;;;;;;5033874;28;20396;-46
2023/06/13 00:49:02;;;;;;;3.20;2.88;;;20.30;99.50;;;;;;5033896;28;20029;-46
2023/06/13 00:51:31;;;;;;;3.83;3.05;;;20.30;99.50;;;;;;5033709;28;20025;-46
2023/06/13 00:53:59;;;;;;;3.58;2.90;;;20.30;99.50;;;;;;5033719;28;20508;-44
2023/06/13 00:56:29;;;;;;;3.53;2.90;;;20.30;99.50;;;;;;5034999;28;20029;-46
2023/06/13 00:58:59;;;;;;;3.50;3.03;;;20.40;99.50;;;;;;5034287;28;20026;-46
2023/06/13 01:01:27;;;;;;;5.18;2.95;;;20.40;99.50;;;;;;5034741;28;20033;-45
2023/06/13 01:03:53;;;;;;;3.75;2.55;;;20.40;99.50;;;;;;5034534;28;20036;-45
2023/06/13 01:06:19;;;;;;;3.78;2.90;;;20.30;99.50;;;;;;5033695;28;20044;-44
2023/06/13 01:08:45;;;;;;;3.22;2.60;;;20.30;99.40;;;;;;5034558;28;20097;-46
2023/06/13 01:11:31;;;;;;;3.33;3.00;;;20.30;99.50;;;;;;5033580;28;20473;-45
2023/06/13 01:14:15;;;;;;;3.05;2.75;;;20.30;99.40;;;;;;5033435;28;20503;-45
2023/06/13 01:16:47;;;;;;;3.05;2.75;;;20.30;99.40;;;;;;5033729;28;20035;-46
2023/06/13 01:19:39;;;;;;;4.70;2.60;;;20.30;99.40;;;;;;5033279;28;20040;-48
2023/06/13 01:22:12;;;;;;;4.20;2.83;;;20.30;99.40;;;;;;5030356;28;20103;-48
2023/06/13 01:25:08;;;;;;;3.50;2.88;;;20.30;99.40;;;;;;5033280;28;20100;-48
2023/06/13 01:27:36;;;;;;;4.45;3.10;;;20.30;99.40;;;;;;5030391;28;20034;-43
2023/06/13 01:30:04;;;;;;;3.42;2.83;;;20.30;99.40;;;;;;5032885;28;20531;-44
2023/06/13 01:32:32;;;;;;;3.92;2.53;;;20.30;99.50;;;;;;5033619;28;20033;-46
2023/06/13 01:34:59;;;;;;;3.90;2.55;;;20.30;99.40;;;;;;5033038;28;20480;-45
2023/06/13 01:37:26;;;;;;;3.10;2.67;;;20.20;99.40;;;;;;5032961;28;20056;-45
2023/06/13 01:39:52;;;;;;;3.38;2.88;;;20.20;99.40;;;;;;5033516;28;20036;-47
2023/06/13 01:42:17;;;;;;;3.65;3.00;;;20.20;99.40;;;;;;5033681;28;20030;-46
2023/06/13 01:44:43;;;;;;;4.15;2.97;;;20.30;99.40;;;;;;5032828;28;20097;-43
2023/06/13 01:47:22;;;;;;;4.35;3.13;;;20.20;99.40;;;;;;5032884;28;20044;-46
2023/06/13 01:50:14;;;;;;;3.53;2.70;;;20.30;99.40;;;;;;5032742;28;20056;-48
2023/06/13 01:52:47;;;;;;;3.95;3.03;;;20.20;99.30;;;;;;5022817;28;20071;-46
2023/06/13 01:55:32;;;;;;;3.03;2.70;;;20.20;99.30;;;;;;5033149;28;20512;-46
2023/06/13 01:58:05;;;;;;;3.53;2.90;;;20.20;99.30;;;;;;5032566;28;20029;-46
2023/06/13 02:00:32;;;;;;;3.22;2.80;;;20.20;99.30;;;;;;5032390;28;20063;-46
2023/06/13 02:03:00;;;;;;;3.70;2.70;;;20.20;99.30;;;;;;5032397;28;20113;-48
2023/06/13 02:05:26;;;;;;;4.70;3.15;;;20.20;99.30;;;;;;5032706;28;20499;-46
2023/06/13 02:07:53;;;;;;;3.75;2.80;;;20.20;99.40;;;;;;5032749;28;20380;-43
2023/06/13 02:10:19;;;;;;;3.42;2.85;;;20.20;99.30;;;;;;5032508;28;20026;-44
2023/06/13 02:12:46;;;;;;;4.43;2.88;;;20.20;99.30;;;;;;5032356;28;20036;-45
2023/06/13 02:15:12;;;;;;;2.88;2.55;;;20.20;99.30;;;;;;5032148;28;20037;-43
2023/06/13 02:17:37;;;;;;;4.10;2.60;;;20.20;99.30;;;;;;5032319;28;20029;-48
2023/06/13 02:20:04;;;;;;;3.92;3.30;;;20.20;99.30;;;;;;5032396;28;20037;-47
2023/06/13 02:22:30;;;;;;;4.13;2.90;;;20.10;99.30;;;;;;5032034;28;20029;-44
2023/06/13 02:24:57;;;;;;;3.70;3.10;;;20.10;99.30;;;;;;5032169;28;20021;-48
2023/06/13 02:27:22;;;;;;;3.90;2.92;;;20.20;99.40;;;;;;5032637;28;20049;-48
2023/06/13 02:29:48;;;;;;;3.08;2.78;;;20.10;99.30;;;;;;5031883;28;20143;-46
2023/06/13 02:32:15;;;;;;;4.20;2.83;;;20.10;99.20;;;;;;5031767;28;20029;-46
2023/06/13 02:34:40;;;;;;;2.95;2.50;;;20.10;99.20;;;;;;5031942;28;20021;-48
2023/06/13 02:37:06;;;;;;;5.03;3.20;;;20.10;99.20;;;;;;5032124;28;20100;-44
2023/06/13 02:39:32;;;;;;;2.92;2.63;;;20.20;99.20;;;;;;5033677;28;20477;-47
2023/06/13 02:41:57;;;;;;;5.38;2.90;;;20.10;99.20;;;;;;5032420;28;20100;-44
2023/06/13 02:44:23;;;;;;;3.72;3.33;;;20.10;99.20;;;;;;5031706;28;20025;-44
2023/06/13 02:46:48;;;;;;;3.40;2.60;;;20.10;99.20;;;;;;5032041;28;20524;-44
2023/06/13 02:49:14;;;;;;;3.72;2.85;;;20.10;99.20;;;;;;5031809;28;20029;-45
2023/06/13 02:51:40;;;;;;;5.22;3.28;;;20.10;99.20;;;;;;5031705;28;20365;-46
2023/06/13 02:54:07;;;;;;;3.95;2.80;;;20.10;99.20;;;;;;5032125;28;20109;-44
2023/06/13 02:56:33;;;;;;;3.63;2.90;;;20.10;99.20;;;;;;5032783;28;20025;-45
2023/06/13 02:58:59;;;;;;;3.33;2.80;;;20.10;99.20;;;;;;5032276;28;20021;-43
2023/06/13 03:01:26;;;;;;;2.67;2.35;;;20.10;99.20;;;;;;5031297;28;20044;-48
2023/06/13 03:03:52;;;;;;;5.03;3.05;;;20.10;99.20;;;;;;5031446;28;20025;-46
2023/06/13 03:06:18;;;;;;;4.50;2.90;;;20.10;99.20;;;;;;5031258;28;20040;-47
2023/06/13 03:08:44;;;;;;;3.35;3.03;;;20.10;99.50;;;;;;5031451;28;20026;-48
2023/06/13 03:11:12;;;;;;;3.53;2.83;;;20.10;99.10;;;;;;5031125;28;20366;-48
2023/06/13 03:13:38;;;;;;;3.88;2.70;;;20.10;99.00;;;;;;5031330;28;20022;-46
2023/06/13 03:16:04;;;;;;;4.47;2.92;;;20.10;99.10;;;;;;5031658;28;20527;-46
2023/06/13 03:18:30;;;;;;;4.50;2.90;;;20.10;99.00;;;;;;5031289;28;20029;-44
2023/06/13 03:20:57;;;;;;;4.00;2.67;;;20.10;99.00;;;;;;5031598;28;20040;-43
2023/06/13 03:23:22;;;;;;;4.03;2.45;;;20.00;99.00;;;;;;5031322;28;20030;-46
2023/06/13 03:25:49;;;;;;;3.83;3.08;;;20.10;99.00;;;;;;5031609;28;20025;-47
2023/06/13 03:28:14;;;;;;;3.05;2.75;;;20.10;99.10;;;;;;5031073;28;20022;-45
2023/06/13 03:30:40;;;;;;;3.85;2.90;;;20.10;99.00;;;;;;5030998;28;20018;-46
2023/06/13 03:33:06;;;;;;;3.63;2.95;;;20.00;99.00;;;;;;5031141;28;20435;-45
2023/06/13 03:35:32;;;;;;;4.85;3.10;;;20.00;99.00;;;;;;5031047;28;20033;-45
2023/06/13 03:37:58;;;;;;;3.60;2.90;;;20.10;99.30;;;;;;5031077;28;20030;-43
2023/06/13 03:40:23;;;;;;;3.70;2.92;;;20.00;98.90;;;;;;5032920;28;20595;-46
2023/06/13 03:42:50;;;;;;;3.03;2.72;;;20.00;98.90;;;;;;5035103;28;20032;-48
2023/06/13 03:45:17;;;;;;;7.43;2.80;;;20.00;98.90;;;;;;5035187;28;20021;-46
2023/06/13 03:47:43;;;;;;;3.30;2.80;;;20.00;98.90;;;;;;5035003;28;20026;-43
2023/06/13 03:50:08;;;;;;;3.45;2.90;;;20.00;99.20;;;;;;5034784;28;20108;-47
2023/06/13 03:52:34;;;;;;;3.85;2.85;;;20.00;98.90;;;;;;5035009;28;20041;-46
2023/06/13 03:54:59;;;;;;;4.88;3.00;;;20.00;98.80;;;;;;5034927;28;20087;-44
2023/06/13 03:57:25;;;;;;;3.55;2.78;;;20.00;98.80;;;;;;5034827;28;20500;-44
2023/06/13 03:59:51;;;;;;;4.55;2.78;;;20.00;98.80;;;;;;5034766;28;20476;-44
2023/06/13 04:02:19;;;;;;;3.38;2.83;;;20.00;98.80;;;;;;5035202;28;20439;-46
2023/06/13 04:04:46;;;;;;;3.85;2.80;;;20.00;98.80;;;;;;5034908;28;20025;-45
2023/06/13 04:07:12;;;;;;;3.00;2.67;;;20.00;98.80;;;;;;5034985;28;20029;-48
2023/06/13 04:09:38;;;;;;;4.13;2.90;;;20.00;98.80;;;;;;5035128;28;20045;-47
2023/06/13 04:12:05;;;;;;;3.60;2.90;;;20.00;98.70;;;;;;5034664;28;20512;-44
2023/06/13 04:14:30;;;;;;;4.07;2.80;;;20.00;98.70;;;;;;5034641;28;20108;-46
2023/06/13 04:16:57;;;;;;;3.80;2.78;;;20.00;98.70;;;;;;5034502;28;20429;-44
2023/06/13 04:19:23;;;;;;;4.53;3.13;;;20.00;98.70;;;;;;5035868;28;20033;-48
2023/06/13 04:21:51;;;;;;;3.42;2.60;;;20.00;98.70;;;;;;5035348;28;20047;-46
2023/06/13 04:24:17;;;;;;;3.60;2.90;;;20.00;98.70;;;;;;5034287;28;20013;-46
2023/06/13 04:26:45;;;;;;;3.08;2.65;;;19.90;98.70;;;;;;5034249;28;20052;-46
2023/06/13 04:29:13;;;;;;;5.03;2.97;;;20.00;98.70;;;;;;5034279;28;20036;-45
2023/06/13 04:31:39;;;;;;;3.78;3.15;;;20.00;98.70;;;;;;5034081;28;20017;-45
2023/06/13 04:34:07;;;;;;;3.45;2.90;;;19.90;98.70;;;;;;5034183;28;20044;-46
2023/06/13 04:36:35;;;;;;;3.53;2.67;;;19.90;98.70;;;;;;5034478;28;20025;-45
2023/06/13 04:39:06;;;;;;;3.80;3.00;;;20.00;98.70;;;;;;5034305;28;20400;-43
2023/06/13 04:41:35;;;;;;;4.70;2.80;;;20.00;98.80;;;;;;5033934;28;20044;-43
2023/06/13 04:44:03;;;;;;;6.10;2.88;;;19.90;98.70;;;;;;5033980;28;20401;-46
2023/06/13 04:46:30;;;;;;;3.13;2.83;;;20.00;98.70;;;;;;5033905;28;20120;-45
2023/06/13 04:48:57;;;;;;;5.47;2.70;;;19.90;98.70;;;;;;5033925;28;20048;-44
2023/06/13 04:51:25;;;;;;;3.85;2.60;;;19.90;98.60;;;;;;5033050;28;20033;-45
2023/06/13 04:53:57;;;;;;;3.83;2.83;;;20.00;98.60;;;;;;5033758;28;20439;-46
2023/06/13 04:56:23;;;;;;;3.92;2.85;;;19.90;98.70;;;;;;5034116;28;20032;-46
2023/06/13 04:58:49;;;;;;;3.97;2.97;;;19.90;98.70;;;;;;5033752;28;20508;-43
2023/06/13 05:01:15;;;;;;;5.00;3.05;;;19.90;98.60;;;;;;5033482;28;20033;-46
2023/06/13 05:03:41;;;;;;;4.32;2.70;;;19.90;98.60;;;;;;5033603;28;20457;-48
2023/06/13 05:06:07;;;;;;;4.38;3.20;;;19.90;98.60;;;;;;5033842;28;20078;-48
2023/06/13 05:08:34;;;;;;;4.13;2.88;;;19.90;98.60;;;;;;5034245;28;20385;-47
2023/06/13 05:11:00;;;;;;;3.53;2.90;;;19.90;98.70;;;;;;5033313;28;20041;-46
2023/06/13 05:13:26;;;;;;;3.50;2.45;;;19.90;98.70;;;;;;5033496;28;20567;-47
2023/06/13 05:15:51;;;;;;;3.88;2.78;;;19.90;98.70;;;;;;5033376;28;20026;-47
2023/06/13 05:18:17;;;;;;;3.70;2.60;;;19.90;98.70;;;;;;5033816;28;20139;-44
2023/06/13 05:20:43;;;;;;;3.53;2.70;;;19.90;98.60;;;;;;5033545;28;20397;-46
2023/06/13 05:23:10;;;;;;;3.92;2.90;;;19.90;98.60;;;;;;5033281;28;20511;-46
2023/06/13 05:25:36;;;;;;;2.95;2.50;;;19.90;98.70;;;;;;5033295;28;20559;-44
2023/06/13 05:28:02;;;;;;;4.57;2.78;;;19.90;98.70;;;;;;5033214;28;20025;-44
2023/06/13 05:30:28;;;;;;;4.13;2.70;;;19.90;98.60;;;;;;5032958;28;20021;-46
2023/06/13 05:32:54;;;;;;;3.08;2.60;;;19.90;98.60;;;;;;5033133;28;20036;-46
2023/06/13 05:35:20;;;;;;;3.67;2.90;;;19.90;98.70;;;;;;5033741;28;20100;-48
2023/06/13 05:37:46;;;;;;;3.72;2.72;;;19.90;98.60;;;;;;5033161;28;20071;-47
2023/06/13 05:40:12;;;;;;;4.03;2.97;;;19.90;98.60;;;;;;5032772;28;20030;-46
2023/06/13 05:42:38;;;;;;;3.85;2.60;;;19.90;98.60;;;;;;5031507;28;20029;-44
2023/06/13 05:45:07;;;;;;;3.45;2.50;;;19.90;98.60;;;;;;5032786;28;20092;-47
2023/06/13 05:47:32;;;;;;;4.13;2.60;;;19.90;98.60;;;;;;5033286;28;20021;-46
2023/06/13 05:49:58;;;;;;;3.05;2.53;;;19.90;98.40;;;;;;5032640;28;20017;-46
2023/06/13 05:52:25;;;;;;;3.65;2.70;;;19.90;98.40;;;;;;5032847;28;20054;-46
2023/06/13 05:54:50;;;;;;;3.88;2.50;;;19.90;98.30;;;;;;5032908;28;20017;-46
2023/06/13 05:57:16;;;;;;;3.33;2.60;;;19.90;98.30;;;;;;5032519;28;20040;-44
2023/06/13 05:59:42;;;;;;;5.18;2.85;;;19.90;98.40;;;;;;5032971;28;20078;-45
2023/06/13 06:02:10;;;;;;;2.90;2.60;;;19.90;98.20;;;;;;5031486;28;20038;-45
2023/06/13 06:04:36;;;;;;;6.28;3.10;;;19.90;98.10;;;;;;5032413;28;20021;-47
2023/06/13 06:07:03;;;;;;;5.78;2.90;;;19.90;97.60;;;;;;5032200;28;20037;-45
2023/06/13 06:09:29;;;;;;;3.72;2.55;;;19.90;97.80;;;;;;5032876;28;20032;-46
2023/06/13 06:11:54;;;;;;;2.95;2.25;;;19.90;97.70;;;;;;5032122;28;20452;-45
2023/06/13 06:14:20;;;;;;;4.63;2.33;;;19.90;97.50;;;;;;5032241;28;20018;-48
2023/06/13 06:16:46;;;;;;;5.45;2.80;;;19.90;97.50;;;;;;5032197;28;20025;-45
2023/06/13 06:19:11;;;;;;;2.78;2.47;;;19.90;97.50;;;;;;5032237;28;20025;-45
2023/06/13 06:21:37;;;;;;;4.35;2.80;;;19.90;97.50;;;;;;5031969;28;20401;-44
2023/06/13 06:24:03;;;;;;;2.88;2.30;;;19.90;97.50;;;;;;5032117;28;20045;-46
2023/06/13 06:26:28;;;;;;;4.38;2.53;;;19.90;97.50;;;;;;5032064;28;20047;-48
2023/06/13 06:28:54;;;;;;;3.53;2.30;;;19.90;97.50;;;;;;5032134;28;20113;-46
2023/06/13 06:31:21;;;;;;;6.00;2.42;;;19.90;96.80;;;;;;5031817;28;20112;-45
2023/06/13 06:33:47;;;;;;;3.10;2.67;;;19.90;97.20;;;;;;5031923;28;20026;-44
2023/06/13 06:36:12;;;;;;;3.88;2.70;;;19.90;97.10;;;;;;5031816;28;20075;-43
2023/06/13 06:38:40;;;;;;;3.28;2.53;;;19.90;96.80;;;;;;5032513;28;20021;-46
2023/06/13 06:41:06;;;;;;;3.80;2.33;;;19.90;96.80;;;;;;5031627;28;20044;-46
2023/06/13 06:43:32;;;;;;;3.90;2.50;;;19.90;96.50;;;;;;5032241;28;20033;-48
2023/06/13 06:45:57;;;;;;;4.43;2.72;;;19.90;96.70;;;;;;5032343;28;20075;-47
2023/06/13 06:48:23;;;;;;;3.97;2.30;;;19.90;96.70;;;;;;5031688;28;20028;-43
2023/06/13 06:50:49;;;;;;;3.63;2.38;;;19.90;96.50;;;;;;5031496;28;20497;-48
2023/06/13 06:53:14;;;;;;;3.13;2.38;;;20.00;96.70;;;;;;5031704;28;20041;-44
2023/06/13 06:55:40;;;;;;;3.45;2.67;;;19.90;96.70;;;;;;5031629;28;20034;-46
2023/06/13 06:58:06;;;;;;;4.78;2.22;;;19.90;96.70;;;;;;5031606;28;20072;-44
2023/06/13 07:00:31;;;;;;;5.57;2.20;;;20.00;96.60;;;;;;5031302;28;20105;-44
2023/06/13 07:02:57;;;;;;;3.15;2.20;;;19.90;96.40;;;;;;5031569;28;20473;-43
2023/06/13 07:05:22;;;;;;;2.90;2.38;;;19.90;96.30;;;;;;5031686;28;20046;-46
2023/06/13 07:07:48;;;;;;;4.68;2.50;;;19.90;96.50;;;;;;5031449;28;20036;-47
2023/06/13 07:10:14;;;;;;;2.97;2.20;;;20.00;96.60;;;;;;5031255;28;20029;-44
2023/06/13 07:12:40;;;;;;;2.70;2.40;;;19.90;96.30;;;;;;5031381;28;20447;-44
2023/06/13 07:15:06;;;;;;;3.25;2.47;;;20.00;96.40;;;;;;5031054;28;20037;-47
2023/06/13 07:17:32;;;;;;;6.57;2.55;;;20.00;96.50;;;;;;5031777;28;20057;-43
2023/06/13 07:19:58;;;;;;;4.13;2.45;;;20.00;96.50;;;;;;5031376;28;20523;-44
2023/06/13 07:22:23;;;;;;;4.50;2.22;;;20.00;96.50;;;;;;5031511;28;20563;-45
2023/06/13 07:24:49;;;;;;;5.18;2.45;;;20.00;96.50;;;;;;5031437;28;20029;-46
2023/06/13 07:27:15;;;;;;;2.83;2.42;;;20.00;96.50;;;;;;5032664;28;20079;-43
2023/06/13 07:29:41;;;;;;;3.17;2.30;;;20.00;96.60;;;;;;5031099;28;20017;-47
2023/06/13 07:32:07;;;;;;;3.72;2.22;;;20.00;96.60;;;;;;5030861;28;20025;-48
2023/06/13 07:34:33;;;;;;;4.30;2.30;;;20.00;96.70;;;;;;5031126;28;20052;-44
2023/06/13 07:36:59;;;;;;;3.80;2.30;;;20.00;96.70;;;;;;5030002;28;20105;-44
2023/06/13 07:39:25;;;;;;;3.22;2.40;;;20.00;96.70;;;;;;5032429;28;20029;-47
2023/06/13 07:41:50;;;;;;;2.53;2.03;;;20.00;96.70;;;;;;5030790;28;20018;-48
2023/06/13 07:44:17;;;;;;;4.05;2.20;;;20.00;96.80;;;;;;5031015;28;20021;-45
2023/06/13 07:46:43;;;;;;;2.90;2.22;;;20.00;96.90;;;;;;5031023;28;20389;-43
2023/06/13 07:49:08;;;;;;;3.17;2.20;;;20.00;96.80;;;;;;5031039;28;20028;-43
2023/06/13 07:51:34;;;;;;;8.15;2.35;;;20.00;96.80;;;;;;5030729;28;20041;-46
2023/06/13 07:54:00;;;;;;;5.82;2.30;;;20.00;96.90;;;;;;5030982;28;20026;-44
2023/06/13 07:56:26;;;;;;;4.57;2.03;;;20.00;97.00;;;;;;5031279;28;20045;-45
2023/06/13 07:58:51;;;;;;;4.03;2.47;;;20.00;97.00;;;;;;5030889;28;20026;-47
2023/06/13 08:01:17;;;;;;;4.18;1.83;;;20.00;97.10;;;;;;5030608;28;20381;-44
2023/06/13 08:03:46;;;;;;;3.72;2.30;;;20.00;97.10;;;;;;5031034;28;20025;-46
2023/06/13 08:06:11;;;;;;;2.92;1.88;;;20.00;97.10;;;;;;5030999;28;20025;-48
2023/06/13 08:08:37;;;;;;;2.92;2.20;;;20.00;97.10;;;;;;5030858;28;20503;-46
2023/06/13 08:11:03;;;;;;;3.00;2.05;;;20.00;97.10;;;;;;5030699;28;20029;-46
2023/06/13 08:13:28;;;;;;;3.20;2.20;;;20.00;97.10;;;;;;5030792;28;20128;-43
2023/06/13 08:15:54;;;;;;;2.60;2.03;;;20.00;97.10;;;;;;5030769;28;20041;-46
2023/06/13 08:18:20;;;;;;;2.88;1.85;;;20.00;97.10;;;;;;5030865;28;20032;-48
2023/06/13 08:20:48;;;;;;;3.25;2.00;;;20.00;97.10;;;;;;5030521;28;20374;-46
2023/06/13 08:23:14;;;;;;;2.50;1.88;;;20.10;97.10;;;;;;5031071;28;20037;-46
2023/06/13 08:25:41;;;;;;;6.20;1.90;;;20.10;97.10;;;;;;5031781;28;20025;-45
2023/06/13 08:28:08;;;;;;;2.33;1.88;;;20.00;97.00;;;;;;5034314;28;20655;-45
2023/06/13 08:30:33;;;;;;;2.65;2.00;;;20.00;97.00;;;;;;5034318;28;20113;-44
2023/06/13 08:33:02;;;;;;;2.78;2.22;;;20.10;97.00;;;;;;5034252;28;20112;-44
2023/06/13 08:35:28;;;;;;;2.47;2.00;;;20.10;97.00;;;;;;5034147;28;20033;-43
2023/06/13 08:37:54;;;;;;;2.30;1.95;;;20.10;97.00;;;;;;5034114;28;20052;-46
2023/06/13 08:40:20;;;;;;;2.92;1.95;;;20.10;97.00;;;;;;5033988;28;20037;-46
2023/06/13 08:42:47;;;;;;;2.53;2.10;;;20.10;97.00;;;;;;5034065;28;20029;-47
2023/06/13 08:45:13;;;;;;;2.83;1.80;;;20.10;97.00;;;;;;5034420;28;20021;-46
2023/06/13 08:47:40;;;;;;;3.15;1.83;;;20.10;97.00;;;;;;5034212;28;20032;-46
2023/06/13 08:50:10;;;;;;;2.72;1.80;;;20.10;97.00;;;;;;5034347;28;20037;-45
2023/06/13 08:52:41;;;;;;;3.15;1.88;;;20.10;97.00;;;;;;5034323;28;20033;-47
2023/06/13 08:55:11;;;;;;;2.80;1.77;;;20.10;96.90;;;;;;5033696;28;20031;-45
2023/06/13 08:57:39;;;;;;;2.88;2.08;;;20.10;96.90;;;;;;5033761;28;20497;-48
2023/06/13 09:00:09;;;;;;;4.43;2.00;;;20.10;96.90;;;;;;5033840;28;20440;-46
2023/06/13 09:02:35;;;;;;;2.83;2.00;;;20.10;96.90;;;;;;5034730;28;20269;-48
2023/06/13 09:05:03;;;;;;;2.97;1.90;;;20.10;96.90;;;;;;5033690;28;20036;-45
2023/06/13 09:07:30;;;;;;;3.35;2.10;;;20.10;96.90;;;;;;5033628;28;20043;-43
2023/06/13 09:09:57;;;;;;;2.83;1.80;;;20.10;96.80;;;;;;5033380;28;20025;-48
2023/06/13 09:12:23;;;;;;;3.38;1.70;;;20.10;96.80;;;;;;5033451;28;20034;-48
2023/06/13 09:14:49;;;;;;;2.33;1.83;;;20.10;96.80;;;;;;5033523;28;20432;-44
2023/06/13 09:17:16;;;;;;;2.42;1.90;;;20.10;96.80;;;;;;5034190;28;20030;-44
2023/06/13 09:19:42;;;;;;;2.08;1.88;;;20.10;96.80;;;;;;5034166;28;20083;-45
2023/06/13 09:22:08;;;;;;;2.33;1.77;;;20.10;96.80;;;;;;5033687;28;20435;-45
2023/06/13 09:24:36;;;;;;;4.45;2.10;;;20.10;96.80;;;;;;5033216;28;20026;-47
2023/06/13 09:27:02;;;;;;;3.72;2.15;;;20.10;96.80;;;;;;5033689;28;20026;-48
2023/06/13 09:29:34;;;;;;;1.90;1.70;;;20.10;96.80;;;;;;5033527;28;20013;-44
2023/06/13 09:32:01;;;;;;;3.47;2.10;;;20.10;96.70;;;;;;5033596;28;20017;-46
2023/06/13 09:34:30;;;;;;;4.22;1.70;;;20.10;96.70;;;;;;5033126;28;20025;-44
2023/06/13 09:36:57;;;;;;;2.40;1.90;;;20.10;96.70;;;;;;5032825;28;20024;-48
2023/06/13 09:39:25;;;;;;;3.25;1.85;;;20.10;96.70;;;;;;5033124;28;20469;-46
2023/06/13 09:41:56;;;;;;;2.33;1.92;;;20.10;96.70;;;;;;5032785;28;20477;-48
2023/06/13 09:44:25;;;;;;;2.08;1.88;;;20.10;96.70;;;;;;5033737;28;20022;-45
2023/06/13 09:46:52;;;;;;;3.85;1.70;;;20.20;96.70;;;;;;5032784;28;20021;-46
2023/06/13 09:49:18;;;;;;;2.50;1.83;;;20.20;96.70;;;;;;5032984;28;20093;-45
2023/06/13 09:51:45;;;;;;;2.75;2.00;;;20.10;96.70;;;;;;5032867;28;20025;-44
2023/06/13 09:54:11;;;;;;;2.33;1.88;;;20.20;96.70;;;;;;5032772;28;20026;-45
2023/06/13 09:56:43;;;;;;;2.33;1.90;;;20.10;96.70;;;;;;5032798;28;20026;-45
2023/06/13 09:59:18;;;;;;;2.20;1.77;;;20.20;96.70;;;;;;5032724;28;20483;-43
2023/06/13 10:01:46;;;;;;;2.33;1.77;;;20.20;97.00;;;;;;5032129;28;20160;-45
2023/06/13 10:04:13;;;;;;;1.92;1.52;;;20.20;96.70;;;;;;5033140;28;20030;-46
2023/06/13 10:06:38;;;;;;;2.45;1.60;;;20.20;96.70;;;;;;5032619;28;20037;-46
2023/06/13 10:09:04;;;;;;;3.08;1.70;;;20.20;96.60;;;;;;5033188;28;20021;-45
2023/06/13 10:11:34;;;;;;;5.07;1.80;;;20.20;96.60;;;;;;5032246;28;20455;-45
2023/06/13 10:14:06;;;;;;;2.13;1.80;;;20.20;96.80;;;;;;5032783;28;20022;-46
2023/06/13 10:16:36;;;;;;;2.00;1.80;;;20.20;96.60;;;;;;5032866;28;20021;-43
2023/06/13 10:19:05;;;;;;;3.47;2.30;;;20.20;96.60;;;;;;5033005;28;20083;-45
2023/06/13 10:21:32;;;;;;;2.25;2.03;;;20.20;96.60;;;;;;5032482;28;20029;-44
2023/06/13 10:23:59;;;;;;;2.33;1.70;;;20.20;96.60;;;;;;5032509;28;20045;-46
2023/06/13 10:26:36;;;;;;;2.92;1.90;;;20.20;96.60;;;;;;5032116;28;20018;-45
2023/06/13 10:29:26;;;;;;;2.33;1.70;;;20.20;96.60;;;;;;5031976;28;20026;-44
2023/06/13 10:31:58;;;;;;;3.33;1.85;;;20.20;96.60;;;;;;5028672;28;20061;-45
2023/06/13 10:34:45;;;;;;;2.03;1.67;;;20.20;96.60;;;;;;5032961;28;20028;-48
2023/06/13 10:38:01;;;;;;;2.83;1.92;;;20.20;96.60;;;;;;5031958;28;20091;-48
2023/06/13 10:40:54;;;;;;;3.10;1.88;;;20.20;96.60;;;;;;5031734;28;20110;-48
2023/06/13 10:43:41;;;;;;;4.45;1.70;;;20.20;96.90;;;;;;5031803;28;20030;-44
2023/06/13 10:46:08;;;;;;;2.20;1.83;;;20.20;96.60;;;;;;5031745;28;20072;-46
2023/06/13 10:48:38;;;;;;;2.20;2.00;;;20.30;96.60;;;;;;5031707;28;20030;-43
2023/06/13 10:51:09;;;;;;;3.42;1.80;;;20.20;96.60;;;;;;5031530;28;20022;-46
2023/06/13 10:53:37;;;;;;;3.25;1.85;;;20.20;96.60;;;;;;5031762;28;20438;-48
2023/06/13 10:56:08;;;;;;;2.53;1.52;;;20.20;96.50;;;;;;5031850;28;20112;-48
2023/06/13 10:58:35;;;;;;;4.35;2.05;;;20.30;96.60;;;;;;5031574;28;20563;-46
2023/06/13 11:01:25;;;;;;;3.42;1.90;;;20.30;96.50;;;;;;5031331;28;20025;-45
2023/06/13 11:03:51;;;;;;;2.33;2.00;;;20.30;96.50;;;;;;5031775;28;20482;-46
2023/06/13 11:06:17;;;;;;;3.47;1.90;;;20.30;96.50;;;;;;5031763;28;20040;-48
2023/06/13 11:08:43;;;;;;;2.42;1.60;;;20.30;96.50;;;;;;5031325;28;20422;-44
2023/06/13 11:11:09;;;;;;;2.47;1.80;;;20.30;96.50;;;;;;5031948;28;20033;-46
2023/06/13 11:13:36;;;;;;;2.67;1.80;;;20.30;96.50;;;;;;5032669;28;20025;-45
2023/06/13 11:16:36;;;;;;;2.17;1.50;;;20.30;96.40;;;;;;5031251;28;20026;-46
2023/06/13 11:19:06;;;;;;;2.38;1.77;;;20.30;96.40;;;;;;5031246;28;20022;-46
2023/06/13 11:21:32;;;;;;;4.55;2.00;;;20.30;96.60;;;;;;5031374;28;20432;-48
2023/06/13 11:23:59;;;;;;;3.22;2.08;;;20.30;96.40;;;;;;5031261;28;20060;-44
2023/06/13 11:26:25;;;;;;;3.00;2.10;;;20.30;96.40;;;;;;5031113;28;20364;-45
2023/06/13 11:28:53;;;;;;;2.45;1.90;;;20.30;96.40;;;;;;5031507;28;20427;-46
2023/06/13 11:31:19;;;;;;;2.70;1.70;;;20.30;96.40;;;;;;5031291;28;20032;-44
2023/06/13 11:33:48;;;;;;;2.72;1.73;;;20.30;96.40;;;;;;5032497;28;20104;-46
2023/06/13 11:36:16;;;;;;;2.95;1.75;;;20.30;96.40;;;;;;5031083;28;20029;-46
2023/06/13 11:38:52;;;;;;;2.55;1.90;;;20.30;96.40;;;;;;5031121;28;20100;-46
2023/06/13 11:41:17;;;;;;;4.82;1.90;;;20.30;96.30;;;;;;5031186;28;20021;-45
2023/06/13 11:43:44;;;;;;;1.65;1.40;;;20.40;96.40;;;;;;5031340;28;20099;-48
2023/06/13 11:46:12;;;;;;;2.80;2.05;;;20.30;96.30;;;;;;5031127;28;20025;-45
2023/06/13 11:48:38;;;;;;;2.35;1.60;;;20.30;96.30;;;;;;5031348;28;20477;-45
2023/06/13 11:51:14;;;;;;;2.65;1.90;;;20.40;96.30;;;;;;5031605;28;20032;-46
2023/06/13 11:53:47;;;;;;;2.80;2.10;;;20.30;96.30;;;;;;5030967;28;20072;-46
2023/06/13 11:56:15;;;;;;;2.83;1.83;;;20.30;96.20;;;;;;5030882;28;20021;-48
2023/06/13 11:58:40;;;;;;;2.72;2.10;;;20.40;96.20;;;;;;5030722;28;20025;-44
2023/06/13 12:01:06;;;;;;;2.65;1.98;;;20.40;96.20;;;;;;5032370;28;20091;-46
2023/06/13 12:03:40;;;;;;;2.35;1.90;;;20.40;96.20;;;;;;5036265;28;20029;-45
2023/06/13 12:06:06;;;;;;;2.00;1.70;;;20.40;96.20;;;;;;5034669;28;20116;-44
2023/06/13 12:08:36;;;;;;;3.20;2.00;;;20.40;96.20;;;;;;5034765;28;20078;-45
2023/06/13 12:11:22;;;;;;;2.30;1.63;;;20.40;96.10;;;;;;5034850;28;20496;-44
2023/06/13 12:13:55;;;;;;;3.05;1.80;;;20.40;96.10;;;;;;5034583;28;20033;-46
2023/06/13 12:16:26;;;;;;;2.55;1.80;;;20.40;96.10;;;;;;5034852;28;20022;-47
2023/06/13 12:18:56;;;;;;;2.00;1.75;;;20.40;96.00;;;;;;5034597;28;20022;-44
2023/06/13 12:21:25;;;;;;;2.72;1.65;;;20.40;96.00;;;;;;5034323;28;20028;-45
2023/06/13 12:23:51;;;;;;;2.00;1.70;;;20.40;96.00;;;;;;5034375;28;20056;-45
2023/06/13 12:26:17;;;;;;;2.65;2.13;;;20.40;96.00;;;;;;5034705;28;20053;-48
2023/06/13 12:28:44;;;;;;;1.92;1.65;;;20.40;96.00;;;;;;5034720;28;20491;-43
2023/06/13 12:31:10;;;;;;;2.78;1.98;;;20.40;96.00;;;;;;5035366;28;20025;-46
2023/06/13 12:33:36;;;;;;;2.25;1.90;;;20.40;96.00;;;;;;5034333;28;20037;-45
2023/06/13 12:36:04;;;;;;;2.95;1.90;;;20.50;96.00;;;;;;5034096;28;20480;-43
2023/06/13 12:38:32;;;;;;;2.10;1.88;;;20.40;96.00;;;;;;5034246;28;20496;-48
2023/06/13 12:40:58;;;;;;;5.07;2.00;;;20.40;96.00;;;;;;5034949;28;20477;-41
2023/06/13 12:43:24;;;;;;;3.00;1.73;;;20.40;96.00;;;;;;5034138;28;20079;-45
2023/06/13 12:45:51;;;;;;;3.25;2.10;;;20.40;96.00;;;;;;5034403;28;20026;-44
2023/06/13 12:48:20;;;;;;;2.40;1.73;;;20.40;96.00;;;;;;5035079;28;20373;-48
2023/06/13 12:50:47;;;;;;;2.03;1.67;;;20.40;96.00;;;;;;5032648;28;20025;-46